Saratoga Springs, NY (12866)

7:28 AM EDT on September 05, 2015 (GMT -0400)
KNYSARAT7 | | Change Station
CLOSE
Current Station
Personal Weather Station
Location: SARATOGA SPRINGS, NY
Elevation: 309 ft
Nearby Weather Stations

Elev 309 ft 43.06 °N, 73.78 °W | Updated 7 seconds ago

Clear
Clear
58.8 °F
Feels Like 58.8 °F
N
0.0
Wind Variable Wind from SW
Gusts 0.0 mph

Today
High -- | Low -- °F
--% Chance of Precip.
Yesterday
High -- | Low -- °F
Precip. -- in
6:23 AM 7:23 PM
Waning Gibbous, 49% visible
Pressure 30.29 in
Visibility 4.0 miles
Clouds Few 300 ft
Dew Point 57 °F
Humidity 95%
Rainfall 0.00 in
Snow Depth Not available.
UV 0 out of 12
Pollen 8.70 out of 12
Air Quality Not available.
Flu Activity Not available.
METAR KGFL 051053Z AUTO 00000KT 4SM BR FEW003 13/12 A3029 RMK AO2 SLP256 T01330117
Pressure 30.29 in
Visibility 4.0 miles
Clouds Few 300 ft
Dew Point 57 °F
Humidity 95%
Rainfall 0.00 in
Snow Depth Not available.
UV 0 out of 12
Pollen 8.70 out of 12
Air Quality Not available.
Flu Activity Not available.
METAR KGFL 051053Z AUTO 00000KT 4SM BR FEW003 13/12 A3029 RMK AO2 SLP256 T01330117

10-Day Weather Forecast

×

Almanac

Astronomy

Sep. 05, 2015 Rise Set
Actual Time
Civil Twilight
Nautical Twilight
Astronomical Twilight
Moon
Length of Visible Light
Length of Day
Tomorrow will be .
, % of the Moon is Illuminated

Today's Extremes

State Highs State Lows

Community

WunderPhotos

Upload Photos

1,852,445 photos uploaded!

WunderBlogs® & News

Nearby

Air Quality

  Air Quality AQ Index Pollutant
Not available.

Snow Depth

Station Depth Elevation

Earthquake Activity

City Distance Mag. Time & Date
Minimum magnitude displayed is 2.5.

Coastal Water Temperatures

Place Temperature

Stations

Nearby Weather Stations

Station Location Temp. Windchill Dew Point Humidity Wind Precip. Elev Updated Type